Time;durP1;ratioP1;P1;durP2;ratioP2;P2;SDS_P1;SDS_P2;PMS_P1;PMS_P2;Temp;Humidity;BMP_temperature;BMP_pressure;BME280_temperature;BME280_humidity;BME280_pressure;Samples;Min_cycle;Max_cycle;Signal;HPM_P1;HPM_P2
2022/01/21 00:01:33;;;;;;;11.43;2.67;;;;;;;-0.77;83.32;102039.72;5047347;28;20734;-66
2022/01/21 00:04:00;;;;;;;11.17;2.40;;;;;;;-0.78;83.16;102038.84;5045496;28;20214;-65
2022/01/21 00:06:27;;;;;;;9.23;2.30;;;;;;;-0.79;83.32;102044.94;5050089;28;20314;-66
2022/01/21 00:08:54;;;;;;;8.63;2.10;;;;;;;-0.80;83.16;102034.44;5048910;28;20210;-66
2022/01/21 00:11:23;;;;;;;9.87;1.97;;;;;;;-0.82;83.24;102037.06;5047747;28;20603;-66
2022/01/21 00:13:51;;;;;;;6.93;1.70;;;;;;;-0.83;82.82;102039.66;5040471;28;20210;-66
2022/01/21 00:16:20;;;;;;;5.90;1.90;;;;;;;-0.85;82.74;102036.16;5030019;28;20218;-68
2022/01/21 00:18:54;;;;;;;5.67;1.90;;;;;;;-0.87;82.62;102041.38;5031749;28;20210;-67
2022/01/21 00:32:19;;;;;;;8.67;2.37;;;;;;;-0.94;82.18;102052.69;5042274;28;20229;-67
2022/01/21 00:34:45;;;;;;;5.87;1.63;;;;;;;-0.92;81.95;102056.19;5043727;28;20713;-67
2022/01/21 00:37:12;;;;;;;5.87;1.30;;;;;;;-0.92;82.06;102045.72;5043874;28;20209;-67
2022/01/21 00:39:39;;;;;;;4.93;2.07;;;;;;;-0.93;81.78;102048.34;5040241;28;20244;-68
2022/01/21 00:42:13;;;;;;;9.30;1.73;;;;;;;-0.92;82.02;102052.69;5044359;28;20280;-68
2022/01/21 00:44:40;;;;;;;5.73;1.83;;;;;;;-0.93;81.74;102054.44;5029803;28;20205;-66
2022/01/21 00:47:07;;;;;;;7.47;1.30;;;;;;;-0.94;81.68;102043.97;5041460;28;20220;-66
2022/01/21 00:49:34;;;;;;;11.40;1.93;;;;;;;-0.96;81.80;102046.56;5040389;28;20290;-67
2022/01/21 00:52:01;;;;;;;9.73;1.60;;;;;;;-0.97;81.15;102046.56;5036274;28;20226;-69
2022/01/21 00:54:28;;;;;;;8.80;1.33;;;;;;;-1.00;81.54;102054.38;5039796;28;20221;-67
2022/01/21 00:56:54;;;;;;;3.87;1.53;;;;;;;-1.04;81.30;102056.09;5040500;28;20663;-67
2022/01/21 00:59:22;;;;;;;8.70;1.67;;;;;;;-1.07;81.26;102062.16;5038110;28;20663;-67
2022/01/21 01:01:49;;;;;;;9.43;1.80;;;;;;;-1.10;81.08;102049.09;5041892;28;20226;-67
2022/01/21 01:04:15;;;;;;;10.33;2.00;;;;;;;-1.12;81.17;102043.00;5045421;28;20198;-68
2022/01/21 01:06:42;;;;;;;8.13;1.80;;;;;;;-1.13;81.28;102040.34;5037229;28;20241;-64
2022/01/21 01:09:09;;;;;;;9.10;3.03;;;;;;;-1.15;81.45;102052.53;5037332;28;20220;-66
2022/01/21 01:11:49;;;;;;;8.47;2.43;;;;;;;-1.16;80.72;102053.41;5048062;28;20725;-68
2022/01/21 01:19:58;;;;;;;10.97;2.07;;;;;;;-1.21;81.20;102048.13;5042999;28;20302;-68
2022/01/21 01:22:33;;;;;;;8.33;1.73;;;;;;;-1.21;80.91;102042.03;5045720;28;20252;-65
2022/01/21 01:27:45;;;;;;;8.23;2.10;;;;;;;-1.24;81.09;102047.22;5041568;28;20789;-66
2022/01/21 01:30:14;;;;;;;13.33;2.57;;;;;;;-1.24;81.44;102052.47;5042985;28;20217;-67
2022/01/21 01:32:44;;;;;;;6.67;2.93;;;;;;;-1.24;81.05;102060.31;5031575;28;20223;-67
2022/01/21 01:35:12;;;;;;;7.23;2.60;;;;;;;-1.24;81.38;102055.06;5033183;28;20214;-66
2022/01/21 01:37:58;;;;;;;12.43;2.10;;;;;;;-1.23;81.90;102054.22;5041310;28;20216;-67
2022/01/21 01:40:27;;;;;;;8.37;2.03;;;;;;;-1.21;82.07;102048.13;5037089;28;20232;-66
2022/01/21 01:49:23;;;;;;;7.00;2.07;;;;;;;-1.20;82.05;102049.00;5044882;28;20691;-66
2022/01/21 01:51:29;;;;;;;9.23;1.80;;;;;;;-1.17;82.81;102059.50;5056913;28;20213;-86
2022/01/21 01:54:00;;;;;;;8.37;2.43;;;;;;;-1.17;82.85;102049.03;5059764;28;20575;-85
2022/01/21 01:56:31;;;;;;;10.20;2.27;;;;;;;-1.18;83.26;102057.75;5058370;28;20220;-86
2022/01/21 01:58:58;;;;;;;11.20;2.20;;;;;;;-1.17;83.00;102052.53;5057426;28;20272;-86
2022/01/21 02:01:24;;;;;;;9.47;2.07;;;;;;;-1.17;83.54;102041.19;5058801;28;20317;-85
2022/01/21 02:03:52;;;;;;;10.00;2.07;;;;;;;-1.17;83.53;102043.81;5057709;28;20278;-86
2022/01/21 02:06:19;;;;;;;8.30;1.87;;;;;;;-1.15;84.04;102050.81;5058250;28;20224;-86
2022/01/21 02:08:46;;;;;;;7.70;2.13;;;;;;;-1.15;84.24;102053.41;5059744;28;20252;-86
2022/01/21 02:11:13;;;;;;;9.93;2.23;;;;;;;-1.16;84.13;102056.91;5059197;28;20212;-86
2022/01/21 02:13:44;;;;;;;8.37;3.03;;;;;;;-1.14;84.18;102049.06;5054508;28;20236;-86
2022/01/21 02:16:19;;;;;;;11.80;3.20;;;;;;;-1.14;84.19;102046.44;5061640;28;20225;-85
2022/01/21 02:21:35;;;;;;;6.67;2.40;;;;;;;-1.14;84.93;102044.72;5058251;28;20225;-86
2022/01/21 02:24:06;;;;;;;6.80;2.07;;;;;;;-1.15;84.40;102040.34;5059213;28;20197;-87
2022/01/21 02:26:33;;;;;;;11.93;2.60;;;;;;;-1.15;84.89;102040.34;5057502;28;20697;-87
2022/01/21 02:29:02;;;;;;;6.40;1.90;;;;;;;-1.15;84.81;102039.47;5058450;28;20854;-87
2022/01/21 02:31:29;;;;;;;9.13;2.03;;;;;;;-1.16;85.20;102037.72;5058616;28;20239;-86
2022/01/21 02:33:55;;;;;;;15.40;2.80;;;;;;;-1.15;85.35;102042.09;5060486;28;20212;-88
2022/01/21 02:36:22;;;;;;;6.50;1.73;;;;;;;-1.18;84.75;102040.31;5060284;28;20220;-86
2022/01/21 02:38:51;;;;;;;11.37;1.57;;;;;;;-1.18;85.35;102036.84;5059027;28;20659;-87
2022/01/21 02:41:17;;;;;;;8.33;2.10;;;;;;;-1.20;85.39;102028.97;5058037;28;20229;-86
2022/01/21 02:43:44;;;;;;;6.67;2.00;;;;;;;-1.19;85.20;102029.84;5058331;28;20201;-87
2022/01/21 02:46:11;;;;;;;7.33;1.90;;;;;;;-1.21;85.55;102019.38;5058343;28;20228;-86
2022/01/21 02:48:38;;;;;;;9.90;2.10;;;;;;;-1.21;85.56;102023.72;5058665;28;20265;-87
2022/01/21 02:51:07;;;;;;;6.27;1.87;;;;;;;-1.22;85.71;102020.25;5054144;28;20285;-87
2022/01/21 02:54:03;;;;;;;6.63;2.17;;;;;;;-1.22;85.87;102027.22;5046948;28;20263;-87
2022/01/21 02:56:28;;;;;;;8.70;2.17;;;;;;;-1.22;86.06;102025.47;5058327;28;20568;-86
2022/01/21 02:58:56;;;;;;;7.63;2.00;;;;;;;-1.21;86.22;102022.00;5051518;28;20227;-87
2022/01/21 03:01:23;;;;;;;11.20;2.70;;;;;;;-1.20;86.14;102013.28;5053127;28;20230;-87
2022/01/21 03:03:51;;;;;;;8.47;2.30;;;;;;;-1.18;86.45;102021.16;5059387;28;20213;-88
2022/01/21 03:06:20;;;;;;;8.00;1.90;;;;;;;-1.17;86.51;102023.78;5058056;28;20285;-86
2022/01/21 03:08:49;;;;;;;10.50;2.27;;;;;;;-1.15;86.70;102023.78;5047021;28;20306;-86
2022/01/21 03:11:16;;;;;;;9.43;2.00;;;;;;;-1.14;86.77;102022.94;5057361;28;20214;-87
2022/01/21 03:13:45;;;;;;;9.93;2.27;;;;;;;-1.11;86.55;102036.03;5057070;28;20201;-87
2022/01/21 03:16:12;;;;;;;11.93;2.07;;;;;;;-1.10;87.00;102037.78;5057383;28;20298;-88
2022/01/21 03:18:39;;;;;;;8.93;2.00;;;;;;;-1.09;87.02;102036.91;5048789;28;20229;-87
2022/01/21 03:21:07;;;;;;;11.37;2.37;;;;;;;-1.06;87.26;102042.13;5046091;28;20277;-87
2022/01/21 03:23:34;;;;;;;13.37;2.50;;;;;;;-1.05;87.19;102042.13;5055551;28;20658;-86
2022/01/21 03:26:01;;;;;;;10.67;2.63;;;;;;;-1.03;87.44;102036.94;5058263;28;20213;-86
2022/01/21 03:28:28;;;;;;;10.37;2.50;;;;;;;-1.02;87.24;102032.56;5057373;28;20249;-85
2022/01/21 03:30:56;;;;;;;12.30;2.70;;;;;;;-1.03;87.50;102042.16;5059145;28;20223;-86
2022/01/21 03:33:26;;;;;;;11.33;2.80;;;;;;;-1.02;87.60;102045.66;5057570;28;20217;-85
2022/01/21 03:35:54;;;;;;;10.13;2.37;;;;;;;-1.03;87.62;102041.28;5058041;28;20282;-86
2022/01/21 03:38:26;;;;;;;7.50;2.57;;;;;;;-1.05;88.01;102038.66;5057555;28;20229;-85
2022/01/21 03:40:53;;;;;;;7.67;2.03;;;;;;;-1.05;87.70;102046.50;5058441;28;20229;-86
2022/01/21 03:43:20;;;;;;;9.93;2.93;;;;;;;-1.06;87.64;102058.69;5058443;28;20218;-86
2022/01/21 03:45:47;;;;;;;11.40;2.73;;;;;;;-1.06;87.31;102049.97;5056966;28;20415;-87
2022/01/21 03:48:17;;;;;;;12.93;2.93;;;;;;;-1.08;87.80;102049.13;5056969;28;20237;-87
2022/01/21 03:50:44;;;;;;;10.83;2.27;;;;;;;-1.09;87.57;102050.84;5050102;28;20210;-86
2022/01/21 03:53:11;;;;;;;9.73;3.20;;;;;;;-1.10;87.47;102062.19;5057572;28;20663;-86
2022/01/21 03:55:38;;;;;;;8.37;2.43;;;;;;;-1.10;88.12;102056.94;5058336;28;20651;-86
2022/01/21 03:58:07;;;;;;;9.60;2.23;;;;;;;-1.12;88.01;102055.19;5059747;28;20209;-86
2022/01/21 04:00:37;;;;;;;8.70;2.00;;;;;;;-1.11;87.87;102060.44;5058891;28;20664;-86
2022/01/21 04:03:04;;;;;;;4.67;2.17;;;;;;;-1.11;87.94;102059.56;5058110;28;20209;-86
2022/01/21 04:05:33;;;;;;;13.37;2.00;;;;;;;-1.10;88.01;102054.34;5059211;28;20236;-86
2022/01/21 04:08:00;;;;;;;7.60;2.03;;;;;;;-1.10;87.99;102053.47;5058250;28;20213;-86
2022/01/21 04:10:27;;;;;;;7.90;1.90;;;;;;;-1.08;87.81;102067.41;5057527;28;20670;-86
2022/01/21 04:12:53;;;;;;;10.63;2.20;;;;;;;-1.08;88.19;102064.81;5057336;28;20221;-86
2022/01/21 04:15:20;;;;;;;9.10;2.33;;;;;;;-1.07;88.10;102067.41;5056946;28;20236;-86
2022/01/21 04:17:47;;;;;;;10.37;1.80;;;;;;;-1.05;88.39;102064.81;5055543;28;20220;-86
2022/01/21 04:20:14;;;;;;;13.60;1.80;;;;;;;-1.02;88.73;102056.97;5056462;28;20296;-85
2022/01/21 04:22:42;;;;;;;7.77;1.63;;;;;;;-0.99;88.36;102074.44;5056007;28;20304;-87
2022/01/21 04:25:10;;;;;;;6.13;1.70;;;;;;;-0.97;88.46;102070.09;5057330;28;20228;-86
2022/01/21 04:27:37;;;;;;;8.70;1.60;;;;;;;-0.95;88.46;102066.63;5056194;28;20285;-86
2022/01/21 04:30:04;;;;;;;10.30;2.17;;;;;;;-0.91;88.53;102070.16;5055981;28;20232;-86
2022/01/21 04:32:31;;;;;;;7.47;1.97;;;;;;;-0.89;89.10;102064.03;5056608;28;20198;-87
2022/01/21 04:34:58;;;;;;;6.27;1.40;;;;;;;-0.86;89.32;102058.81;5056824;28;20652;-86
2022/01/21 04:37:27;;;;;;;5.60;1.57;;;;;;;-0.81;89.68;102056.25;5055430;28;20213;-87
2022/01/21 04:40:01;;;;;;;4.93;1.43;;;;;;;-0.75;89.71;102058.91;5055186;28;20242;-87
2022/01/21 04:47:56;;;;;;;4.50;1.43;;;;;;;-0.55;90.00;102051.16;5056069;28;20350;-86
2022/01/21 04:50:26;;;;;;;8.03;1.73;;;;;;;-0.50;90.34;102049.41;5059993;28;20667;-87
2022/01/21 04:52:52;;;;;;;7.47;1.73;;;;;;;-0.47;90.32;102050.31;5057873;28;20505;-87
2022/01/21 04:55:20;;;;;;;7.73;2.10;;;;;;;-0.45;90.22;102059.03;5057553;28;20676;-86
2022/01/21 04:57:47;;;;;;;8.07;2.07;;;;;;;-0.42;90.09;102064.28;5055826;28;20213;-87
2022/01/21 05:00:14;;;;;;;10.57;1.67;;;;;;;-0.40;90.04;102051.22;5056589;28;20212;-86
2022/01/21 05:02:41;;;;;;;7.93;1.60;;;;;;;-0.37;90.17;102056.47;5058154;28;20279;-87
2022/01/21 05:05:09;;;;;;;8.07;1.80;;;;;;;-0.38;89.99;102054.72;5059237;28;20304;-87
2022/01/21 05:07:38;;;;;;;9.83;2.63;;;;;;;-0.38;89.87;102054.72;5053661;28;20229;-88
2022/01/21 05:10:06;;;;;;;10.33;3.03;;;;;;;-0.39;89.83;102051.22;5057309;28;20240;-87
2022/01/21 05:12:34;;;;;;;8.63;1.67;;;;;;;-0.38;90.12;102054.72;5055731;28;20686;-86
2022/01/21 05:17:49;;;;;;;6.40;1.27;;;;;;;-0.37;89.66;102053.84;5042709;28;20277;-87
2022/01/21 05:20:17;;;;;;;5.80;1.33;;;;;;;-0.37;89.61;102062.59;5056843;28;20205;-87
2022/01/21 05:22:45;;;;;;;8.23;1.63;;;;;;;-0.38;89.69;102054.72;5044069;28;20252;-87
2022/01/21 05:25:17;;;;;;;7.13;1.40;;;;;;;-0.39;89.59;102043.38;5046621;28;20260;-86
2022/01/21 05:27:47;;;;;;;4.53;1.27;;;;;;;-0.41;89.62;102032.03;5046727;28;20795;-86
2022/01/21 05:30:14;;;;;;;7.93;2.17;;;;;;;-0.43;89.37;102036.38;5050015;28;20679;-85
2022/01/21 05:32:47;;;;;;;4.60;1.43;;;;;;;-0.42;89.33;102029.41;5046979;28;20695;-86
2022/01/21 05:35:14;;;;;;;7.00;1.57;;;;;;;-0.44;89.25;102028.50;5045354;28;20285;-87
2022/01/21 05:37:41;;;;;;;12.30;2.13;;;;;;;-0.44;89.39;102024.16;5051805;28;20234;-86
2022/01/21 05:40:12;;;;;;;3.53;1.20;;;;;;;-0.44;89.40;102034.63;5056294;28;20268;-87
2022/01/21 05:42:39;;;;;;;7.00;1.30;;;;;;;-0.44;89.27;102036.38;5060534;28;20679;-86
2022/01/21 05:47:52;;;;;;;3.47;1.30;;;;;;;-0.42;88.93;102032.00;5055125;28;20228;-86
2022/01/21 05:50:19;;;;;;;7.83;1.40;;;;;;;-0.42;89.35;102042.47;5062803;28;20218;-87
2022/01/21 05:52:47;;;;;;;6.03;1.13;;;;;;;-0.40;89.08;102040.75;5057546;22;20227;-74
2022/01/21 05:55:14;;;;;;;11.20;1.80;;;;;;;-0.39;89.46;102034.66;5001225;28;20285;-75
2022/01/21 05:57:41;;;;;;;7.20;1.83;;;;;;;-0.38;89.15;102039.00;5007679;28;20202;-74
2022/01/21 06:00:10;;;;;;;4.27;1.70;;;;;;;-0.39;89.36;102038.13;5010956;28;20210;-74
2022/01/21 06:02:38;;;;;;;8.00;1.80;;;;;;;-0.38;89.48;102046.88;5009465;28;20227;-73
2022/01/21 06:05:05;;;;;;;7.77;1.30;;;;;;;-0.36;89.38;102047.75;5010553;28;20272;-75
2022/01/21 06:07:32;;;;;;;9.27;2.07;;;;;;;-0.35;89.47;102050.34;5011641;28;20199;-74
2022/01/21 06:09:59;;;;;;;6.83;1.70;;;;;;;-0.31;89.46;102045.13;5005351;28;20207;-74
2022/01/21 06:12:26;;;;;;;5.47;1.73;;;;;;;-0.29;89.62;102044.25;5007003;28;20582;-74
2022/01/21 06:14:52;;;;;;;7.00;2.57;;;;;;;-0.25;89.85;102039.91;4999443;28;20578;-74
2022/01/21 06:17:20;;;;;;;5.43;2.70;;;;;;;-0.22;89.58;102039.94;5008011;28;20214;-74
2022/01/21 06:19:46;;;;;;;6.20;2.20;;;;;;;-0.21;89.35;102037.31;5007590;28;20245;-73
2022/01/21 06:22:15;;;;;;;8.07;2.43;;;;;;;-0.19;89.77;102038.22;5003275;28;20728;-74
2022/01/21 06:24:41;;;;;;;5.10;1.70;;;;;;;-0.18;89.56;102037.31;5004441;28;20286;-74
2022/01/21 06:27:08;;;;;;;6.73;2.00;;;;;;;-0.17;89.61;102049.53;5008165;28;20217;-74
2022/01/21 06:29:35;;;;;;;7.57;2.97;;;;;;;-0.17;89.51;102052.16;5011402;28;20227;-74
2022/01/21 06:32:01;;;;;;;8.30;2.50;;;;;;;-0.14;89.49;102054.78;5010001;28;20649;-76
2022/01/21 06:34:29;;;;;;;6.77;1.87;;;;;;;-0.14;89.54;102046.94;5010509;28;20198;-76
2022/01/21 06:36:55;;;;;;;7.87;1.80;;;;;;;-0.10;89.52;102053.06;5012878;28;20207;-75
2022/01/21 06:39:22;;;;;;;6.60;1.83;;;;;;;-0.07;89.49;102053.06;5012140;28;20393;-74
2022/01/21 06:41:49;;;;;;;9.00;1.60;;;;;;;-0.04;89.75;102063.56;5010560;28;20704;-74
2022/01/21 06:44:16;;;;;;;4.57;1.57;;;;;;;-0.02;89.90;102062.69;5012146;28;20234;-74
2022/01/21 06:46:43;;;;;;;11.97;1.63;;;;;;;0.02;89.80;102065.28;5010206;28;20210;-76
2022/01/21 06:49:10;;;;;;;6.53;2.33;;;;;;;0.05;89.82;102070.53;5012288;28;20237;-76
2022/01/21 06:51:38;;;;;;;9.10;1.83;;;;;;;0.07;89.85;102068.81;5011327;28;20210;-76
2022/01/21 06:54:04;;;;;;;5.07;1.33;;;;;;;0.11;89.97;102081.06;5010660;28;20215;-74
2022/01/21 06:56:31;;;;;;;6.77;1.67;;;;;;;0.14;90.02;102081.06;5011897;28;20218;-75
2022/01/21 06:58:58;;;;;;;8.27;1.63;;;;;;;0.18;89.85;102090.69;5011205;28;20227;-75
2022/01/21 07:01:25;;;;;;;6.73;2.20;;;;;;;0.20;90.02;102083.66;5011969;28;20293;-74
2022/01/21 07:03:51;;;;;;;12.70;2.30;;;;;;;0.24;90.21;102082.81;5010932;28;20215;-74
2022/01/21 07:06:18;;;;;;;9.10;2.53;;;;;;;0.29;90.12;102075.84;5011613;28;20230;-76
2022/01/21 07:08:46;;;;;;;10.80;1.50;;;;;;;0.34;90.15;102079.34;5011589;28;20302;-74
2022/01/21 07:11:12;;;;;;;7.10;1.43;;;;;;;0.38;90.20;102086.31;5010632;28;20214;-76
2022/01/21 07:13:39;;;;;;;6.17;1.40;;;;;;;0.40;90.24;102068.84;5012097;28;20225;-75
2022/01/21 07:16:07;;;;;;;9.07;1.40;;;;;;;0.44;90.33;102080.22;5011615;28;20211;-74
2022/01/21 07:18:33;;;;;;;17.00;1.70;;;;;;;0.45;89.99;102082.84;5010738;28;20778;-73
2022/01/21 07:21:00;;;;;;;5.60;2.57;;;;;;;0.49;90.38;102086.34;5011364;28;20203;-74
2022/01/21 07:23:26;;;;;;;7.80;1.53;;;;;;;0.52;90.39;102086.38;5009978;28;20726;-74
2022/01/21 07:25:54;;;;;;;14.77;2.00;;;;;;;0.55;90.20;102095.06;5011041;28;20231;-74
2022/01/21 07:28:21;;;;;;;6.20;1.37;;;;;;;0.59;90.26;102096.84;5010659;28;20245;-74
2022/01/21 07:30:48;;;;;;;8.03;1.63;;;;;;;0.62;89.93;102102.09;5010977;28;20210;-74
2022/01/21 07:33:15;;;;;;;7.23;1.40;;;;;;;0.67;90.22;102100.34;5010610;28;20206;-74
2022/01/21 07:35:42;;;;;;;11.83;1.70;;;;;;;0.71;89.63;102111.72;5011147;28;20214;-74
2022/01/21 07:38:08;;;;;;;6.43;1.77;;;;;;;0.75;89.76;102116.06;5010508;28;20260;-76
2022/01/21 07:40:35;;;;;;;6.17;1.80;;;;;;;0.75;89.65;102112.56;5010248;28;20656;-74
2022/01/21 07:43:03;;;;;;;12.57;1.93;;;;;;;0.73;89.79;102119.56;5010599;28;20227;-74
2022/01/21 07:45:30;;;;;;;2.53;1.20;;;;;;;0.74;89.77;102118.69;5009922;28;20207;-74
2022/01/21 07:47:56;;;;;;;8.83;1.60;;;;;;;0.75;89.92;102112.56;5011078;28;20223;-74
2022/01/21 07:50:23;;;;;;;8.00;1.50;;;;;;;0.76;89.89;102114.31;5010333;28;20207;-74
2022/01/21 07:52:49;;;;;;;10.67;2.30;;;;;;;0.77;89.80;102121.31;5010330;28;20226;-74
2022/01/21 07:55:16;;;;;;;7.67;1.53;;;;;;;0.77;90.08;102110.81;5010184;28;20677;-74
2022/01/21 07:57:43;;;;;;;4.30;2.07;;;;;;;0.74;90.27;102119.56;5010547;28;20203;-74
2022/01/21 08:00:12;;;;;;;6.20;1.87;;;;;;;0.75;90.32;102123.06;5010975;28;20206;-77
2022/01/21 08:02:38;;;;;;;8.87;2.00;;;;;;;0.75;90.41;102117.81;5002578;28;20227;-77
2022/01/21 08:05:05;;;;;;;10.10;2.07;;;;;;;0.74;90.32;102118.69;5010338;28;20672;-74
2022/01/21 08:07:32;;;;;;;5.60;1.30;;;;;;;0.75;90.71;102116.06;5009713;28;20306;-74
2022/01/21 08:09:59;;;;;;;7.40;1.73;;;;;;;0.76;90.79;102111.69;5010387;28;20680;-75
2022/01/21 08:12:25;;;;;;;10.47;1.73;;;;;;;0.77;90.79;102105.59;5010255;28;20198;-77
2022/01/21 08:14:52;;;;;;;6.67;2.27;;;;;;;0.77;90.95;102102.97;5009118;28;20209;-75
2022/01/21 08:17:20;;;;;;;6.87;1.97;;;;;;;0.77;90.91;102109.06;5010671;28;20206;-73
2022/01/21 08:19:46;;;;;;;5.13;2.20;;;;;;;0.77;91.18;102110.81;5010151;28;20238;-72
2022/01/21 08:22:13;;;;;;;6.87;2.07;;;;;;;0.78;91.27;102108.22;5009411;28;20227;-72
2022/01/21 08:24:39;;;;;;;13.80;2.30;;;;;;;0.79;91.56;102101.22;5010087;28;20202;-72
2022/01/21 08:27:07;;;;;;;9.50;2.20;;;;;;;0.80;91.70;102105.59;5009029;28;20226;-72
2022/01/21 08:29:33;;;;;;;11.83;2.70;;;;;;;0.81;91.80;102102.09;5010167;28;20529;-72
2022/01/21 08:32:00;;;;;;;10.13;3.40;;;;;;;0.83;92.16;102105.59;5009422;28;20590;-72
2022/01/21 08:34:29;;;;;;;10.77;2.77;;;;;;;0.85;91.76;102109.97;5009927;28;20203;-73
2022/01/21 08:36:55;;;;;;;9.03;3.23;;;;;;;0.86;92.18;102111.72;5009960;28;20681;-72
2022/01/21 08:39:22;;;;;;;5.77;2.00;;;;;;;0.90;91.87;102115.19;5009930;28;20230;-72
2022/01/21 08:41:49;;;;;;;7.17;1.80;;;;;;;0.91;92.21;102109.94;5007667;28;20582;-75
2022/01/21 08:44:16;;;;;;;3.73;1.67;;;;;;;0.93;92.31;102107.31;5010068;28;20211;-72
2022/01/21 08:46:43;;;;;;;7.00;1.80;;;;;;;0.96;92.46;102107.31;5008428;28;20660;-74
2022/01/21 08:49:09;;;;;;;5.50;1.97;;;;;;;0.97;92.35;102114.31;5010167;28;20225;-72
2022/01/21 08:51:48;;;;;;;7.93;2.37;;;;;;;1.00;92.55;102114.31;5010272;28;20207;-74
2022/01/21 08:54:16;;;;;;;7.03;2.27;;;;;;;1.02;92.69;102113.44;5009813;28;20715;-74
2022/01/21 08:56:45;;;;;;;5.87;1.60;;;;;;;1.06;92.74;102116.97;5009947;28;20213;-74
2022/01/21 08:59:12;;;;;;;2.43;1.53;;;;;;;1.07;92.25;102121.34;5009464;28;20727;-73
2022/01/21 09:01:39;;;;;;;6.57;1.83;;;;;;;1.11;92.27;102127.44;5009767;28;20211;-73
2022/01/21 09:04:06;;;;;;;4.23;1.20;;;;;;;1.14;92.66;102133.53;5009589;28;20226;-75
2022/01/21 09:06:32;;;;;;;6.87;1.60;;;;;;;1.16;92.42;102137.03;5009301;28;20226;-73
2022/01/21 09:09:00;;;;;;;6.03;1.63;;;;;;;1.19;92.55;102125.69;5009582;28;20305;-75
2022/01/21 09:11:27;;;;;;;6.07;1.57;;;;;;;1.22;92.37;102136.19;5008384;28;20203;-72
2022/01/21 09:13:54;;;;;;;4.63;1.70;;;;;;;1.25;92.40;102142.31;5009653;28;20210;-73
2022/01/21 09:16:20;;;;;;;5.23;1.60;;;;;;;1.26;92.62;102138.78;5009999;28;20207;-74
2022/01/21 09:18:49;;;;;;;4.67;1.93;;;;;;;1.30;92.47;102134.41;5013027;28;20226;-76
2022/01/21 09:21:18;;;;;;;4.23;1.90;;;;;;;1.33;92.71;102150.16;5013226;28;20215;-73
2022/01/21 09:23:47;;;;;;;7.10;2.37;;;;;;;1.36;92.55;102160.66;5012172;28;20250;-73
2022/01/21 09:26:16;;;;;;;4.87;1.80;;;;;;;1.37;92.30;102147.53;5013511;28;20229;-75
2022/01/21 09:28:43;;;;;;;3.80;2.30;;;;;;;1.41;93.02;102158.03;5012788;28;20222;-76
2022/01/21 09:31:09;;;;;;;5.17;1.93;;;;;;;1.42;92.63;102147.53;5013029;28;20207;-76
2022/01/21 09:33:36;;;;;;;8.30;2.93;;;;;;;1.44;92.25;102152.75;5012785;28;20203;-73
2022/01/21 09:36:02;;;;;;;3.03;2.20;;;;;;;1.46;92.61;102145.75;5011029;28;20203;-73
2022/01/21 09:38:29;;;;;;;7.90;1.90;;;;;;;1.48;92.44;102138.75;5004467;28;20238;-73
2022/01/21 09:40:57;;;;;;;6.33;3.10;;;;;;;1.50;92.56;102143.13;5003196;28;20207;-72
2022/01/21 09:43:25;;;;;;;7.17;3.40;;;;;;;1.48;92.32;102149.25;5002846;28;20226;-75
2022/01/21 09:45:54;;;;;;;3.10;2.03;;;;;;;1.49;91.89;102151.00;5002494;28;20207;-73
2022/01/21 09:48:24;;;;;;;5.90;2.00;;;;;;;1.52;92.11;102146.63;5011036;28;20236;-75
2022/01/21 09:50:52;;;;;;;5.93;1.90;;;;;;;1.57;92.30;102141.34;5011879;28;20210;-73
2022/01/21 09:53:25;;;;;;;4.50;2.17;;;;;;;1.59;92.41;102140.47;5004125;28;20238;-73
2022/01/21 09:55:52;;;;;;;4.33;2.37;;;;;;;1.64;92.00;102146.56;5003460;28;20214;-73
2022/01/21 09:58:19;;;;;;;6.33;2.17;;;;;;;1.68;92.20;102136.94;5008613;28;20599;-73
2022/01/21 10:00:48;;;;;;;4.53;1.90;;;;;;;1.73;92.16;102143.06;5005592;28;20214;-73
2022/01/21 10:03:16;;;;;;;7.67;2.10;;;;;;;1.77;92.02;102147.44;5000574;28;20229;-73
2022/01/21 10:05:46;;;;;;;4.80;2.00;;;;;;;1.79;91.85;102143.06;5003085;28;20214;-73
2022/01/21 10:08:14;;;;;;;5.00;2.80;;;;;;;1.83;91.45;102152.63;5000049;28;20784;-73
2022/01/21 10:10:42;;;;;;;4.63;1.70;;;;;;;1.85;91.53;102150.00;5003408;28;20687;-73
2022/01/21 10:13:09;;;;;;;5.90;2.53;;;;;;;1.86;91.24;102150.00;5005873;28;20214;-73
2022/01/21 10:15:37;;;;;;;5.33;2.77;;;;;;;1.91;91.59;102150.88;5004649;28;20205;-73
2022/01/21 10:18:08;;;;;;;4.10;1.70;;;;;;;1.92;91.66;102147.38;5002433;28;20313;-73
2022/01/21 10:20:35;;;;;;;3.67;1.93;;;;;;;1.96;91.25;102150.88;5005022;28;20203;-74
2022/01/21 10:23:05;;;;;;;7.90;2.13;;;;;;;1.94;90.63;102150.88;5000878;28;20230;-74
2022/01/21 10:25:33;;;;;;;5.10;1.83;;;;;;;1.92;90.98;102147.38;5007047;28;20589;-73
2022/01/21 10:28:17;;;;;;;6.67;3.17;;;;;;;1.92;91.26;102143.88;5001524;28;20758;-73
2022/01/21 10:30:44;;;;;;;7.47;2.60;;;;;;;1.94;90.91;102147.38;5009043;28;20299;-73
2022/01/21 10:33:20;;;;;;;6.07;2.00;;;;;;;1.97;91.12;102144.72;5007115;28;20219;-76
2022/01/21 10:35:49;;;;;;;8.20;2.60;;;;;;;1.99;91.21;102154.34;5007525;28;20641;-74
2022/01/21 10:38:18;;;;;;;4.03;2.70;;;;;;;2.01;90.61;102151.69;5009977;28;20246;-74
2022/01/21 10:40:45;;;;;;;5.63;2.20;;;;;;;2.02;90.74;102150.81;5003859;28;20199;-74
2022/01/21 10:43:13;;;;;;;5.13;1.70;;;;;;;2.02;90.86;102149.06;5003585;28;20305;-73
2022/01/21 10:45:50;;;;;;;5.97;2.70;;;;;;;1.99;90.81;102148.19;5004712;28;20261;-73
2022/01/21 10:48:16;;;;;;;4.03;1.90;;;;;;;1.95;90.55;102147.38;5000851;28;20234;-74
2022/01/21 10:50:44;;;;;;;12.07;2.80;;;;;;;1.97;90.46;102156.09;5005459;28;20258;-73
2022/01/21 10:53:27;;;;;;;7.23;2.23;;;;;;;1.99;90.48;102153.47;5005057;28;20211;-72
2022/01/21 10:55:54;;;;;;;6.93;2.83;;;;;;;2.01;90.95;102170.97;5003173;28;20427;-74
2022/01/21 10:58:20;;;;;;;7.13;2.10;;;;;;;2.03;90.44;102179.72;4998294;28;20219;-73
2022/01/21 11:00:59;;;;;;;6.87;2.37;;;;;;;2.09;90.52;102169.19;5004766;28;20208;-73
2022/01/21 11:03:28;;;;;;;5.90;2.23;;;;;;;2.11;90.48;102181.47;5002782;28;20219;-74
2022/01/21 11:06:09;;;;;;;10.43;2.17;;;;;;;2.17;91.11;102173.53;5002429;28;20731;-72
2022/01/21 11:08:36;;;;;;;9.43;3.03;;;;;;;2.22;90.61;102180.53;5001974;28;20235;-72
2022/01/21 11:11:03;;;;;;;14.13;5.93;;;;;;;2.26;91.05;102178.75;5000234;28;20277;-73
2022/01/21 11:13:33;;;;;;;8.33;2.67;;;;;;;2.30;90.38;102177.88;5001281;28;20203;-73
2022/01/21 11:16:06;;;;;;;8.67;3.03;;;;;;;2.35;90.54;102178.69;4994532;28;20217;-73
2022/01/21 11:18:33;;;;;;;6.27;2.63;;;;;;;2.37;90.47;102174.31;5004992;28;20810;-73
2022/01/21 11:21:07;;;;;;;7.70;2.17;;;;;;;2.40;90.74;102176.91;5004168;28;20219;-73
2022/01/21 11:23:35;;;;;;;6.87;2.27;;;;;;;2.42;90.03;102188.31;5002228;28;20222;-72
2022/01/21 11:26:03;;;;;;;8.63;2.60;;;;;;;2.43;90.60;102190.06;5000657;28;20211;-73
2022/01/21 11:28:39;;;;;;;8.93;3.17;;;;;;;2.43;90.36;102187.44;4999050;28;20309;-73
2022/01/21 11:31:05;;;;;;;6.67;2.37;;;;;;;2.47;90.24;102193.56;4998287;28;20226;-73
2022/01/21 11:33:32;;;;;;;9.90;1.97;;;;;;;2.47;90.80;102197.06;5000209;28;20203;-73
2022/01/21 11:36:01;;;;;;;7.70;2.90;;;;;;;2.46;90.67;102192.69;4998941;28;20207;-71
2022/01/21 11:38:30;;;;;;;10.63;1.87;;;;;;;2.49;89.79;102191.78;4999983;28;20596;-73
2022/01/21 11:40:56;;;;;;;8.63;2.30;;;;;;;2.51;89.94;102187.41;5000177;28;20209;-73
2022/01/21 11:43:23;;;;;;;5.20;2.43;;;;;;;2.53;89.98;102178.59;4998961;28;20815;-73
2022/01/21 11:46:16;;;;;;;6.43;2.10;;;;;;;2.56;89.65;102177.69;5004638;28;20207;-73
2022/01/21 11:48:52;;;;;;;5.03;2.00;;;;;;;2.57;89.79;102180.31;5003477;28;20226;-72
2022/01/21 11:51:24;;;;;;;8.77;4.67;;;;;;;2.59;89.47;102191.72;5002744;28;20211;-73
2022/01/21 11:53:53;;;;;;;5.90;2.00;;;;;;;2.60;90.17;102176.81;4998991;28;20310;-73
2022/01/21 11:56:37;;;;;;;5.70;1.90;;;;;;;2.62;90.27;102178.56;5004215;28;20202;-73
2022/01/21 11:59:23;;;;;;;7.23;2.20;;;;;;;2.64;90.29;102175.91;5009646;28;20227;-73
2022/01/21 12:01:52;;;;;;;7.13;2.30;;;;;;;2.63;89.85;102161.03;5001019;28;20206;-73
2022/01/21 12:04:38;;;;;;;5.97;2.00;;;;;;;2.65;89.66;102172.41;5005594;28;20227;-73
2022/01/21 12:07:48;;;;;;;9.00;3.00;;;;;;;2.63;89.89;102169.78;5010219;28;20556;-73
2022/01/21 12:10:17;;;;;;;8.23;1.97;;;;;;;2.64;90.08;102166.28;5000685;28;20631;-73
2022/01/21 12:13:12;;;;;;;5.27;1.90;;;;;;;2.66;89.84;102168.91;5009024;28;20206;-73